Hualapai Flat, Nevada Weather observations

Data are for 10 minute period ending at time listed.
 Day   Time   Solar   Ave.   Ave.  Ave.  Vector  Max.   Baro.   Total    
  of    of     Rad.   Air    Rel.  Wind   Wind   Wind  Press.  Precip.   
Year   Day            Temp.  Hum.  Speed  Dir.   Gust                    
2017   (PST)  Kw/m2    F      %     mph   deg.    mph    mb.     in.     
-------------------------------------------------------------------------
  50    6:30   0.00   35.6    68    8.5   294    13.6   863.3    0.00 
  50    6:40   0.00   36.2    67    9.2   248    14.2   863.3    0.00 
  50    6:50   0.00   36.9    65    8.9   210    12.6   863.4    0.00 
  50    7:00   0.01   37.9    61   10.8   212    19.9   863.5    0.00 
  50    7:10   0.02   39.6    54   10.5   215    17.5   863.5    0.00 
  50    7:20   0.09   40.4    53    9.8   226    17.5   863.4    0.00 
  50    7:30   0.12   41.4    50   10.2   229    21.8   863.3    0.00 
  50    7:40   0.15   42.7    48   10.0   221    17.7   863.4    0.00 
  50    7:50   0.18   43.3    47    9.3   218    25.0   863.6    0.00 
  50    8:00   0.21   43.4    49    7.4   226    14.3   863.7    0.00 
  50    8:10   0.25   43.5    50    6.3   227    12.0   863.9    0.00 
  50    8:20   0.29   44.9    49    8.5   210    16.9   864.1    0.00 
  50    8:30   0.31   44.7    49    9.7   224    19.1   864.1    0.00 
  50    8:40   0.34   45.5    49   10.3   219    16.6   864.1    0.00 
  50    8:50   0.38   45.4    49    9.0   231    20.9   864.3    0.00 
  50    9:00   0.40   45.2    50   10.9   248    17.9   864.3    0.00 
  50    9:10   0.43   46.0    50    8.9   228    20.9   864.3    0.00 
  50    9:20   0.44   46.0    51   13.1   247    23.1   864.5    0.00 
  50    9:30   0.47   46.0    50   17.7   242    32.0   864.6    0.00 
  50    9:40   0.49   46.8    49   15.1   228    23.8   864.7    0.00 
  50    9:50   0.51   47.4    46   16.6   217    28.3   864.7    0.00 
  50   10:00   0.53   48.4    45   11.4   216    17.2   864.9    0.00 
  50   10:10   0.55   48.5    44   13.3   215    18.3   865.0    0.00 
  50   10:20   0.58   49.5    44   13.5   214    20.4   865.1    0.00 
  50   10:30   0.55   49.8    44   12.3   219    23.1   865.2    0.00 
  50   10:40   0.56   50.5    44   12.1   204    20.8   865.3    0.00 
  50   10:50   0.52   50.6    43   15.2   205    24.4   865.3    0.00 
  50   11:00   0.55   50.4    43   14.2   212    21.1   865.2    0.00 
  50   11:10   0.58   51.5    43   13.7   217    19.6   865.3    0.00 
  50   11:20   0.65   51.5    42   16.0   225    24.7   865.4    0.00 
  50   11:30   0.61   51.5    42   15.5   227    28.4   865.4    0.00 
  50   11:40   0.58   51.0    42   16.0   232    25.4   865.4    0.00 
  50   11:50   0.65   51.7    42   17.7   223    25.9   865.4    0.00 
  50   12:00   0.69   52.2    41   20.0   219    26.4   865.3    0.00 
  50   12:10   0.68   53.0    41   18.7   227    27.7   865.3    0.00 
  50   12:20   0.66   53.2    40   21.1   220    30.2   865.2    0.00 
  50   12:30   0.66   52.9    41   17.7   231    27.0   865.3    0.00 
  50   12:40   0.65   53.3    41   16.3   226    25.9   865.3    0.00 
  50   12:50   0.65   53.7    39   18.0   233    27.1   865.2    0.00 
  50   13:00   0.52   53.4    40   16.5   236    25.5   865.3    0.00 
  50   13:10   0.56   52.4    42   15.4   230    24.0   865.4    0.00 
  50   13:20   0.32   52.6    40   14.9   225    22.6   865.5    0.00 
  50   13:30   0.56   52.8    43   14.9   215    24.5   865.4    0.00 
  50   13:40   0.56   54.1    40   16.0   232    23.5   865.4    0.00 
  50   13:50   0.57   53.9    40   15.9   230    23.8   865.3    0.00 
  50   14:00   0.55   53.9    40   15.9   231    25.9   865.3    0.00 
  50   14:10   0.51   54.3    40   18.0   217    29.8   865.2    0.00 
  50   14:20   0.55   54.1    41   16.9   226    23.5   865.4    0.00 
  50   14:30   0.33   53.4    42   15.7   230    23.4   865.5    0.00 
  50   14:40   0.42   52.2    45   15.8   235    20.7   865.4    0.00 
  50   14:50   0.32   52.2    44   17.0   243    24.7   865.3    0.00 
  50   15:00   0.40   52.1    44   16.2   230    24.9   865.3    0.00 
  50   15:10   0.34   53.1    43   17.5   233    28.0   865.3    0.00 
  50   15:20   0.20   51.3    46   17.5   239    22.6   865.3    0.00 
  50   15:30   0.10   50.2    47   18.3   238    26.1   865.3    0.00 
  50   15:40   0.08   49.7    47   19.5   240    28.9   865.2    0.00 
  50   15:50   0.06   49.5    47   22.2   242    31.4   865.2    0.00 
  50   16:00   0.10   49.6    47   22.0   241    29.3   865.2    0.00 
  50   16:10   0.06   49.4    48   17.7   246    27.9   865.3    0.00 
  50   16:20   0.13   49.1    50   18.1   251    24.5   865.3    0.00 
  50   16:30   0.10   49.7    48   18.5   248    26.2   865.2    0.00 
  50   16:40   0.04   48.8    49   18.0   239    25.4   865.2    0.00 
  50   16:50   0.03   48.3    49   22.8   236    35.3   865.1    0.00 
  50   17:00   0.03   48.3    49   24.4   237    31.7   865.1    0.00 
  50   17:10   0.02   47.9    50   20.9   238    31.8   865.3    0.00 
  50   17:20   0.02   47.9    50   21.0   244    29.5   865.3    0.00 
  50   17:30   0.01   47.5    51   16.9   237    29.5   865.7    0.00 
  50   17:40   0.01   47.4    51   18.5   241    25.9   865.5    0.00 
  50   17:50   0.00   47.0    52   16.2   245    23.8   865.6    0.00 
  50   18:00   0.00   46.5    54   18.3   246    25.9   865.9    0.00 
  50   18:10   0.00   46.4    54   15.9   248    22.6   866.0    0.00 
  50   18:20   0.00   46.1    56   16.0   259    24.4   866.1    0.00 
  50   18:30   0.00   45.8    58   11.8   255    19.0   866.5    0.00 
  50   18:40   0.00   45.4    59   11.4   258    18.2   866.8    0.00 
  50   18:50   0.00   45.0    60    8.1   248    14.3   866.9    0.00 
  50   19:00   0.00   44.6    60    4.1   131     6.9   867.2    0.00 
  50   19:10   0.00   45.4    59    2.1    75     7.9   867.2    0.00 
  50   19:20   0.00   45.0    59    1.7    19     6.3   867.2    0.00 
  50   19:30   0.00   44.6    60    2.7    81     7.7   867.3    0.00 
  50   19:40   0.00   44.8    60    4.3    75     9.2   867.4    0.00 
  50   19:50   0.00   45.3    58    3.3   339     6.1   867.6    0.00 
  50   20:00   0.00   45.0    59    1.4   314     4.2   867.6    0.00 
  50   20:10   0.00   44.4    58    2.1    38     4.7   867.7    0.00 
  50   20:20   0.00   44.6    59    2.7    58     6.4   867.7    0.00 
  50   20:30   0.00   44.6    60    4.3   312     9.5   867.8    0.00 
  50   20:40   0.00   44.0    61    5.2   256    10.7   867.9    0.00 
  50   20:50   0.00   44.3    61    3.2   217     7.6   867.9    0.00 
  50   21:00   0.00   42.3    65    5.1   322     7.5   867.9    0.00 
  50   21:10   0.00   40.9    67    3.8   340     5.9   868.0    0.00 
  50   21:20   0.00   42.3    67    4.5    16     8.5   867.9    0.00 
  50   21:30   0.00   41.9    67    2.4    49     5.0   868.0    0.00 
  50   21:40   0.00   45.4    62    2.9     9     4.6   868.0    0.00 
  50   21:50   0.00   46.4    58    2.5   328     8.6   868.2    0.00 
  50   22:00   0.00   45.7    58    5.5   357    10.2   868.2    0.00 
  50   22:10   0.00   45.7    58    4.3    26     6.9   868.1    0.00 
  50   22:20   0.00   46.0    58    5.5    21    13.4   868.0    0.00 
  50   22:30   0.00   45.9    58    3.5    19     7.9   868.2    0.00 
  50   22:40   0.00   46.0    58    5.7    29    12.1   868.3    0.00 
  50   22:50   0.00   45.0    61    6.8    39    11.4   868.3    0.00 
  50   23:00   0.00   44.3    62    6.6   354     9.8   868.3    0.00 
  50   23:10   0.00   44.0    63    6.2     2    10.4   868.3    0.00 
  50   23:20   0.00   43.9    63    3.6    10     7.9   868.6    0.00 
  50   23:30   0.00   44.2    63    3.6   126     9.5   868.4    0.00 
  50   23:40   0.00   43.9    62    3.5    42     7.9   868.1    0.00 
  50   23:50   0.00   42.9    65    4.7    10     7.9   868.1    0.00 
  51    0:00   0.00   44.1    64    4.5    32    10.0   868.5    0.00 
  51    0:10   0.00   43.5    65    6.6     5    12.6   868.5    0.00 
  51    0:20   0.00   45.3    62    3.6    77     7.3   868.5    0.00 
  51    0:30   0.00   45.1    61    2.9    62     6.4   868.3    0.00 
  51    0:40   0.00   45.5    60    4.0    87     6.9   868.3    0.00 
  51    0:50   0.00   43.6    62    4.1    11     7.2   868.1    0.00 
  51    1:00   0.00   42.5    65    6.2    24     9.4   867.9    0.00 
  51    1:10   0.00   42.7    67    6.8    29    10.5   867.6    0.00 
  51    1:20   0.00   41.4    70    8.4     0    11.5   867.6    0.00 
  51    1:30   0.00   41.9    70    7.1   357    11.2   867.7    0.00 
  51    1:40   0.00   43.3    68    5.2   303     8.0   868.3    0.00 
  51    1:50   0.00   40.8    71    4.3   358     5.9   868.0    0.00 
  51    2:00   0.00   40.6    73    5.5    40     7.3   867.6    0.00 
  51    2:10   0.00   42.1    71    4.4     7     6.0   867.8    0.00 
  51    2:20   0.00   41.8    71    4.2    35     5.9   867.7    0.00 
  51    2:30   0.00   41.5    72    4.5   353     7.6   867.7    0.00 
  51    2:40   0.00   42.4    70    6.8   316    10.5   867.8    0.00 
  51    2:50   0.00   43.8    68    4.9   335     6.9   868.0    0.00 
  51    3:00   0.00   43.6    67    5.2    54     7.7   867.8    0.00 
  51    3:10   0.00   43.5    69    5.7   115    11.3   867.9    0.00 
  51    3:20   0.00   44.5    68    6.6   161     9.2   868.0    0.00 
  51    3:30   0.00   44.0    71    3.0   183     6.5   868.0    0.00 
  51    3:40   0.00   43.7    72    3.8   202     8.3   867.5    0.00 
  51    3:50   0.00   43.0    74    2.3    36     5.8   867.8    0.00 
  51    4:00   0.00   43.2    75    5.4    87    10.3   867.6    0.00 
  51    4:10   0.00   42.4    79    7.8    68    13.1   867.2    0.00 
  51    4:20   0.00   42.2    82   10.9   104    15.3   867.0    0.00 
  51    4:30   0.00   42.2    83    8.6    84    11.8   867.3    0.00 
  51    4:40   0.00   42.3    83    8.2    65    14.0   867.2    0.00 
  51    4:50   0.00   42.6    82    8.2    40    11.4   867.4    0.00 
  51    5:00   0.00   42.9    81    5.6   119    10.7   867.2    0.00 
  51    5:10   0.00   43.3    80    8.4   197    12.7   867.5    0.00 
  51    5:20   0.00   42.8    81   10.1   201    18.1   867.7    0.00 
  51    5:30   0.00   42.8    81    6.3   323    13.2   867.9    0.00 
  51    5:40   0.00   43.4    78    9.6   275    31.9   867.7    0.00 
  51    5:50   0.00   47.2    66   26.4   212    42.7   867.3    0.00 
  51    6:00   0.00   47.2    67   18.7   198    36.1   867.6    0.00 
  51    6:10   0.00   46.1    70   22.4   200    40.0   867.2    0.00 
  51    6:20   0.00   46.0    69   25.9   200    49.0   867.0    0.00 

Return to Hualapai Flat graphs page.


Western Regional Climate Center,wrcc@dri.edu